Time;durP1;ratioP1;P1;durP2;ratioP2;P2;SDS_P1;SDS_P2;PMS_P1;PMS_P2;Temp;Humidity;BMP_temperature;BMP_pressure;BME280_temperature;BME280_humidity;BME280_pressure;Samples;Min_cycle;Max_cycle;Signal;HPM_P1;HPM_P2
2022/11/16 00:00:50;;;;;;;6.97;3.73;;;;;;;-141.59;100.00;61776.25;5076029;28;20217;-79
2022/11/16 00:03:17;;;;;;;4.13;3.70;;;;;;;-141.59;100.00;61776.25;5073616;28;20213;-79
2022/11/16 00:05:46;;;;;;;5.53;3.70;;;;;;;-141.59;100.00;61776.25;5075248;28;20205;-79
2022/11/16 00:08:13;;;;;;;4.70;3.50;;;;;;;-141.59;100.00;61776.25;5072188;28;20289;-78
2022/11/16 00:10:40;;;;;;;8.87;4.13;;;;;;;-141.59;100.00;61776.25;5072658;28;20228;-78
2022/11/16 00:13:08;;;;;;;6.80;4.30;;;;;;;-141.59;100.00;61776.25;5074982;28;20224;-79
2022/11/16 00:15:36;;;;;;;5.37;4.10;;;;;;;-141.59;100.00;61776.25;5079470;28;20196;-79
2022/11/16 00:18:03;;;;;;;4.93;3.83;;;;;;;-141.59;100.00;61776.25;5086284;28;20219;-79
2022/11/16 00:20:30;;;;;;;5.83;3.90;;;;;;;-141.59;100.00;61776.25;5073446;28;20217;-78
2022/11/16 00:22:58;;;;;;;5.23;4.07;;;;;;;-141.59;100.00;61776.25;5083236;28;20205;-79
2022/11/16 00:25:25;;;;;;;4.97;4.43;;;;;;;-141.59;100.00;61776.25;5071393;28;20204;-79
2022/11/16 00:27:52;;;;;;;6.33;4.50;;;;;;;-141.59;100.00;61776.25;5080311;28;20275;-79
2022/11/16 00:30:19;;;;;;;6.30;4.57;;;;;;;-141.59;100.00;61776.25;5086074;28;20240;-79
2022/11/16 00:32:47;;;;;;;4.30;3.40;;;;;;;-141.59;100.00;61776.25;5083989;28;20204;-79
2022/11/16 00:35:14;;;;;;;6.77;3.90;;;;;;;-141.59;100.00;61776.25;5090406;28;20196;-78
2022/11/16 00:37:41;;;;;;;1.67;1.30;;;;;;;-141.59;100.00;61776.25;5088395;28;20251;-79
2022/11/16 00:40:11;;;;;;;0.50;0.50;;;;;;;-141.59;100.00;61776.25;5077947;28;20228;-78
2022/11/16 00:42:38;;;;;;;0.50;0.50;;;;;;;-141.59;100.00;61776.25;5092225;28;20196;-79
2022/11/16 00:45:06;;;;;;;3.10;2.40;;;;;;;-141.59;100.00;61776.25;5076633;27;20197;-78
2022/11/16 00:47:33;;;;;;;6.17;4.30;;;;;;;-141.59;100.00;61776.25;5080058;28;20218;-78
2022/11/16 00:50:01;;;;;;;7.23;5.00;;;;;;;-141.59;100.00;61776.25;5102091;28;20193;-79
2022/11/16 00:52:28;;;;;;;10.07;4.67;;;;;;;-141.59;100.00;61776.25;5071645;28;20244;-79
2022/11/16 00:54:55;;;;;;;7.83;4.87;;;;;;;-141.59;100.00;61776.25;5073795;28;20201;-79
2022/11/16 00:57:25;;;;;;;4.73;4.00;;;;;;;-141.59;100.00;61776.25;5083790;28;20207;-79
2022/11/16 00:59:52;;;;;;;5.27;4.33;;;;;;;-141.59;100.00;61776.25;5080758;28;20252;-79
2022/11/16 01:02:19;;;;;;;5.53;4.70;;;;;;;-141.59;100.00;61776.25;5079689;28;20205;-78
2022/11/16 01:04:46;;;;;;;9.00;4.60;;;;;;;-141.59;100.00;61776.25;5091801;28;20208;-79
2022/11/16 01:07:13;;;;;;;6.47;4.17;;;;;;;-141.59;100.00;61776.25;5080337;28;20247;-78
2022/11/16 01:09:40;;;;;;;5.27;4.33;;;;;;;-141.59;100.00;61776.25;5087221;28;20288;-79
2022/11/16 01:12:08;;;;;;;7.90;3.80;;;;;;;-141.59;100.00;61776.25;5073386;28;20205;-78
2022/11/16 01:14:37;;;;;;;6.30;3.70;;;;;;;-141.59;100.00;61776.25;5091829;28;20201;-79
2022/11/16 01:17:06;;;;;;;5.77;4.07;;;;;;;-141.59;100.00;61776.25;5078739;28;20219;-78
2022/11/16 01:19:33;;;;;;;4.13;3.27;;;;;;;-141.59;100.00;61776.25;5082408;28;20216;-79
2022/11/16 01:22:00;;;;;;;5.20;3.47;;;;;;;-141.59;100.00;61776.25;5084250;28;20223;-78
2022/11/16 01:24:28;;;;;;;4.50;3.80;;;;;;;-141.59;100.00;61776.25;5082807;28;20200;-79
2022/11/16 01:26:57;;;;;;;5.97;4.10;;;;;;;-141.59;100.00;61776.25;5081078;28;20269;-78
2022/11/16 01:29:30;;;;;;;8.73;4.63;;;;;;;-141.59;100.00;61776.25;5086809;28;20200;-79
2022/11/16 01:32:01;;;;;;;5.93;4.87;;;;;;;-141.59;100.00;61776.25;5074543;28;20208;-78
2022/11/16 01:34:28;;;;;;;6.33;4.83;;;;;;;-141.59;100.00;61776.25;5081267;28;20203;-79
2022/11/16 01:37:02;;;;;;;7.10;4.73;;;;;;;-141.59;100.00;61776.25;5079771;28;20192;-78
2022/11/16 01:39:33;;;;;;;5.73;4.83;;;;;;;-141.59;100.00;61776.25;5081670;28;20224;-78
2022/11/16 01:42:02;;;;;;;7.23;5.43;;;;;;;-141.59;100.00;61776.25;5074457;28;20286;-78
2022/11/16 01:45:05;;;;;;;6.07;4.73;;;;;;;-141.59;100.00;61776.25;5077000;28;20204;-78
2022/11/16 01:47:34;;;;;;;5.63;5.00;;;;;;;-141.59;100.00;61776.25;5085115;28;20232;-78
2022/11/16 01:50:08;;;;;;;6.33;5.27;;;;;;;-141.59;100.00;61776.25;5077369;28;20283;-78
2022/11/16 01:52:42;;;;;;;7.10;5.00;;;;;;;-141.59;100.00;61776.25;5089022;28;20230;-78
2022/11/16 01:55:10;;;;;;;6.90;5.23;;;;;;;-141.59;100.00;61776.25;5078057;28;20197;-79
2022/11/16 01:57:57;;;;;;;5.83;4.93;;;;;;;-141.59;100.00;61776.25;5095946;28;20250;-78
2022/11/16 02:00:26;;;;;;;6.37;5.17;;;;;;;-141.59;100.00;61776.25;5082895;28;20219;-78
2022/11/16 02:03:08;;;;;;;7.00;5.10;;;;;;;-141.59;100.00;61776.25;5080386;28;20200;-78
2022/11/16 02:05:57;;;;;;;6.33;4.70;;;;;;;-141.59;100.00;61776.25;5086035;28;20204;-78
2022/11/16 02:11:50;;;;;;;7.37;4.80;;;;;;;-141.59;100.00;61776.25;5077773;28;20220;-78
2022/11/16 02:14:32;;;;;;;6.83;4.50;;;;;;;-141.59;100.00;61776.25;5078293;28;20291;-79
2022/11/16 02:17:08;;;;;;;6.57;4.93;;;;;;;-141.59;100.00;61776.25;5072136;28;20287;-79
2022/11/16 02:20:06;;;;;;;8.13;4.83;;;;;;;-141.59;100.00;61776.25;5072676;28;20213;-78
2022/11/16 02:22:50;;;;;;;6.40;4.87;;;;;;;-141.59;100.00;61776.25;5079534;28;20203;-78
2022/11/16 02:25:29;;;;;;;8.40;5.17;;;;;;;-141.59;100.00;61776.25;5090732;28;20192;-79
2022/11/16 02:28:20;;;;;;;6.00;5.03;;;;;;;-141.59;100.00;61776.25;5079257;28;20261;-78
2022/11/16 02:30:53;;;;;;;6.50;4.60;;;;;;;-141.59;100.00;61776.25;5092892;28;20319;-78
2022/11/16 02:33:27;;;;;;;5.47;4.53;;;;;;;-141.59;100.00;61776.25;5077628;28;20212;-78
2022/11/16 02:35:59;;;;;;;8.00;5.33;;;;;;;-141.59;100.00;61776.25;5089103;28;20204;-78
2022/11/16 02:38:28;;;;;;;6.17;5.13;;;;;;;-141.59;100.00;61776.25;5080413;28;20196;-78
2022/11/16 02:41:01;;;;;;;8.00;5.70;;;;;;;-141.59;100.00;61776.25;5077314;28;20329;-78
2022/11/16 02:43:36;;;;;;;8.20;5.80;;;;;;;-141.59;100.00;61776.25;5084628;28;20204;-78
2022/11/16 02:46:11;;;;;;;8.37;5.90;;;;;;;-141.59;100.00;61776.25;5081121;28;20201;-78
2022/11/16 02:48:42;;;;;;;6.87;5.60;;;;;;;-141.59;100.00;61776.25;5087517;28;20202;-78
2022/11/16 02:51:10;;;;;;;7.63;6.27;;;;;;;-141.59;100.00;61776.25;5081446;28;20193;-78
2022/11/16 02:53:41;;;;;;;8.10;6.20;;;;;;;-141.59;100.00;61776.25;5079690;28;20200;-79
2022/11/16 02:56:13;;;;;;;7.53;6.13;;;;;;;-141.59;100.00;61776.25;5077283;28;20240;-78
2022/11/16 02:58:41;;;;;;;7.90;6.00;;;;;;;-141.59;100.00;61776.25;5083087;28;20220;-78
2022/11/16 03:01:15;;;;;;;10.33;6.03;;;;;;;-141.59;100.00;61776.25;5082578;28;20220;-78
2022/11/16 03:03:49;;;;;;;7.80;5.70;;;;;;;-141.59;100.00;61776.25;5079101;28;20236;-78
2022/11/16 03:06:21;;;;;;;6.90;5.53;;;;;;;-141.59;100.00;61776.25;5078555;28;20208;-78
2022/11/16 03:08:57;;;;;;;7.30;5.87;;;;;;;-141.59;100.00;61776.25;5078519;28;20211;-78
2022/11/16 03:14:14;;;;;;;8.87;5.90;;;;;;;-141.59;100.00;61776.25;5078798;28;20207;-78
2022/11/16 03:16:46;;;;;;;8.57;6.80;;;;;;;-141.59;100.00;61776.25;5077207;28;20204;-78
2022/11/16 03:19:19;;;;;;;7.87;6.33;;;;;;;-141.59;100.00;61776.25;5098960;28;20192;-78
2022/11/16 03:21:51;;;;;;;9.40;6.60;;;;;;;-141.59;100.00;61776.25;5084855;28;20315;-78
2022/11/16 03:24:21;;;;;;;10.47;7.00;;;;;;;-141.59;100.00;61776.25;5085824;28;20230;-78
2022/11/16 03:26:56;;;;;;;8.50;6.47;;;;;;;-141.59;100.00;61776.25;5088449;28;20215;-78
2022/11/16 03:29:30;;;;;;;8.40;6.40;;;;;;;-141.59;100.00;61776.25;5084250;28;20204;-78
2022/11/16 03:32:08;;;;;;;9.93;7.20;;;;;;;-141.59;100.00;61776.25;5054556;28;20205;-77
2022/11/16 03:34:38;;;;;;;8.37;6.73;;;;;;;-141.59;100.00;61776.25;5056462;28;20288;-77
2022/11/16 03:37:06;;;;;;;7.60;6.60;;;;;;;-141.59;100.00;61776.25;5063913;28;20213;-77
2022/11/16 03:39:39;;;;;;;9.23;6.50;;;;;;;-141.59;100.00;61776.25;5062809;28;20217;-78
2022/11/16 03:42:13;;;;;;;9.47;5.83;;;;;;;-141.59;100.00;61776.25;5059297;28;20355;-78
2022/11/16 03:44:44;;;;;;;8.07;5.87;;;;;;;-141.59;100.00;61776.25;5061262;28;20237;-78
2022/11/16 03:47:13;;;;;;;8.17;6.07;;;;;;;-141.59;100.00;61776.25;5056209;28;20202;-77
2022/11/16 03:49:44;;;;;;;8.57;7.00;;;;;;;-141.59;100.00;61776.25;5052500;28;20232;-77
2022/11/16 03:52:15;;;;;;;8.23;6.87;;;;;;;-141.59;100.00;61776.25;5061454;28;20213;-78
2022/11/16 03:54:42;;;;;;;9.07;6.97;;;;;;;-141.59;100.00;61776.25;5051913;28;20228;-77
2022/11/16 03:57:14;;;;;;;11.40;7.23;;;;;;;-141.59;100.00;61776.25;5059329;28;20204;-78
2022/11/16 03:59:42;;;;;;;8.57;7.20;;;;;;;-141.59;100.00;61776.25;5053021;28;20205;-78
2022/11/16 04:02:09;;;;;;;8.40;6.70;;;;;;;-141.59;100.00;61776.25;5054013;28;20224;-78
2022/11/16 04:24:14;;;;;;;10.13;6.73;;;;;;;-141.59;100.00;61776.25;5061559;28;20234;-79
2022/11/16 04:29:38;;;;;;;8.83;6.73;;;;;;;-141.59;100.00;61776.25;5042383;28;20243;-80
2022/11/16 04:37:52;;;;;;;9.87;7.60;;;;;;;-141.59;100.00;61776.25;5088385;28;20222;-79
2022/11/16 04:40:28;;;;;;;13.90;7.47;;;;;;;-141.59;100.00;61776.25;5078149;28;20189;-79
2022/11/16 04:42:57;;;;;;;10.40;7.20;;;;;;;-141.59;100.00;61776.25;5100688;28;20247;-79
2022/11/16 04:48:12;;;;;;;10.20;7.07;;;;;;;-141.59;100.00;61776.25;5078998;28;20201;-79
2022/11/16 04:50:40;;;;;;;8.77;7.03;;;;;;;-141.59;100.00;61776.25;5086632;28;20205;-79
2022/11/16 04:53:09;;;;;;;11.27;8.17;;;;;;;-141.59;100.00;61776.25;5073971;28;20209;-79
2022/11/16 04:55:44;;;;;;;10.40;7.20;;;;;;;-141.59;100.00;61776.25;5074948;28;20269;-79
2022/11/16 04:58:11;;;;;;;10.87;7.77;;;;;;;-141.59;100.00;61776.25;5090608;28;20238;-79
2022/11/16 05:00:38;;;;;;;13.83;8.00;;;;;;;-141.59;100.00;61776.25;5079328;28;20207;-79
2022/11/16 05:03:07;;;;;;;10.63;7.77;;;;;;;-141.59;100.00;61776.25;5082243;28;20220;-79
2022/11/16 05:05:34;;;;;;;10.97;7.90;;;;;;;-141.59;100.00;61776.25;5085676;28;20203;-79
2022/11/16 05:08:02;;;;;;;9.87;7.70;;;;;;;-141.59;100.00;61776.25;5083915;28;20196;-79
2022/11/16 05:10:33;;;;;;;10.23;7.23;;;;;;;-141.59;100.00;61776.25;5074675;28;20212;-79
2022/11/16 05:13:00;;;;;;;10.17;7.03;;;;;;;-141.59;100.00;61776.25;5080480;28;20294;-79
2022/11/16 05:15:28;;;;;;;8.70;7.17;;;;;;;-141.59;100.00;61776.25;5085148;28;20202;-79
2022/11/16 05:17:57;;;;;;;9.23;6.90;;;;;;;-141.59;100.00;61776.25;5070344;28;20229;-79
2022/11/16 05:24:32;;;;;;;9.23;7.00;;;;;;;-141.59;100.00;61776.25;5075239;28;20224;-79
2022/11/16 05:26:02;;;;;;;9.50;7.93;;;;;;;-141.59;100.00;61776.25;5084831;28;20273;-80
2022/11/16 05:28:29;;;;;;;11.10;7.90;;;;;;;-141.59;100.00;61776.25;5085842;28;20292;-80
2022/11/16 05:30:58;;;;;;;11.27;7.50;;;;;;;-141.59;100.00;61776.25;5086298;28;20224;-80
2022/11/16 05:33:27;;;;;;;9.77;6.70;;;;;;;-141.59;100.00;61776.25;5085316;28;20201;-80
2022/11/16 05:35:55;;;;;;;8.53;6.87;;;;;;;-141.59;100.00;61776.25;5082242;28;20205;-80
2022/11/16 05:38:23;;;;;;;11.00;6.50;;;;;;;-141.59;100.00;61776.25;5089569;28;20209;-80
2022/11/16 05:40:54;;;;;;;8.13;6.43;;;;;;;-141.59;100.00;61776.25;5074017;28;20196;-80
2022/11/16 05:43:24;;;;;;;10.97;6.80;;;;;;;-141.59;100.00;61776.25;5081952;28;20220;-80
2022/11/16 05:45:59;;;;;;;10.07;6.80;;;;;;;-141.59;100.00;61776.25;5074714;28;20196;-80
2022/11/16 05:48:26;;;;;;;10.77;7.53;;;;;;;-141.59;100.00;61776.25;5092550;28;20216;-80
2022/11/16 05:50:58;;;;;;;8.57;6.53;;;;;;;-141.59;100.00;61776.25;5072715;28;20209;-80
2022/11/16 05:53:26;;;;;;;10.73;7.37;;;;;;;-141.59;100.00;61776.25;5091708;28;20253;-81
2022/11/16 05:55:53;;;;;;;10.60;6.87;;;;;;;-141.59;100.00;61776.25;5087294;28;20196;-80
2022/11/16 05:58:23;;;;;;;8.70;6.90;;;;;;;-141.59;100.00;61776.25;5078972;28;20200;-80
2022/11/16 06:00:51;;;;;;;9.33;6.97;;;;;;;-141.59;100.00;61776.25;5077461;28;20197;-80
2022/11/16 06:03:19;;;;;;;9.30;7.23;;;;;;;-141.59;100.00;61776.25;5075479;28;20221;-80
2022/11/16 06:05:46;;;;;;;10.73;7.97;;;;;;;-141.59;100.00;61776.25;5082163;28;20205;-80
2022/11/16 06:08:16;;;;;;;10.37;7.37;;;;;;;-141.59;100.00;61776.25;5074344;28;20200;-80
2022/11/16 06:10:43;;;;;;;11.80;7.90;;;;;;;-141.59;100.00;61776.25;5079722;28;20215;-80
2022/11/16 06:13:11;;;;;;;10.67;7.60;;;;;;;-141.59;100.00;61776.25;5081445;28;20192;-80
2022/11/16 06:15:40;;;;;;;10.20;7.47;;;;;;;-141.59;100.00;61776.25;5080619;28;20193;-80
2022/11/16 06:18:09;;;;;;;10.87;7.83;;;;;;;-141.59;100.00;61776.25;5084091;28;20213;-80
2022/11/16 06:20:38;;;;;;;10.60;7.57;;;;;;;-141.59;100.00;61776.25;5076608;28;20209;-80
2022/11/16 06:23:09;;;;;;;11.03;7.97;;;;;;;-141.59;100.00;61776.25;5083402;28;20247;-80
2022/11/16 06:25:38;;;;;;;11.93;8.20;;;;;;;-141.59;100.00;61776.25;5081785;28;20200;-80
2022/11/16 06:28:07;;;;;;;11.20;9.03;;;;;;;-141.59;100.00;61776.25;5083006;28;20197;-79
2022/11/16 06:30:34;;;;;;;10.60;7.90;;;;;;;-141.59;100.00;61776.25;5087134;28;20232;-81
2022/11/16 06:33:05;;;;;;;10.77;8.00;;;;;;;-141.59;100.00;61776.25;5076686;28;20292;-80
2022/11/16 06:35:33;;;;;;;11.13;8.87;;;;;;;-141.59;100.00;61776.25;5081823;28;20219;-80
2022/11/16 06:38:00;;;;;;;10.37;8.40;;;;;;;-141.59;100.00;61776.25;5075982;28;20273;-80
2022/11/16 06:40:28;;;;;;;11.03;8.37;;;;;;;-141.59;100.00;61776.25;5079041;28;20193;-79
2022/11/16 06:42:57;;;;;;;9.57;7.63;;;;;;;-141.59;100.00;61776.25;5084042;28;20225;-79
2022/11/16 06:45:24;;;;;;;9.97;8.10;;;;;;;-141.59;100.00;61776.25;5083939;28;20228;-77
2022/11/16 06:47:55;;;;;;;10.43;7.77;;;;;;;-141.59;100.00;61776.25;5079257;28;20235;-77
2022/11/16 06:50:25;;;;;;;10.33;7.80;;;;;;;-141.59;100.00;61776.25;5087330;28;20205;-78
2022/11/16 06:52:53;;;;;;;11.37;7.50;;;;;;;-141.59;100.00;61776.25;5091559;28;20188;-77
2022/11/16 06:55:23;;;;;;;11.17;7.93;;;;;;;-141.59;100.00;61776.25;5094484;28;20204;-77
2022/11/16 06:57:49;;;;;;;11.93;8.30;;;;;;;-141.59;100.00;61776.25;5083354;28;20247;-75
2022/11/16 07:00:18;;;;;;;10.77;8.37;;;;;;;-141.59;100.00;61776.25;5075966;28;20212;-74
2022/11/16 07:02:46;;;;;;;10.37;8.07;;;;;;;-141.59;100.00;61776.25;5088674;28;20213;-75
2022/11/16 07:05:17;;;;;;;11.60;8.77;;;;;;;-141.59;100.00;61776.25;5089556;28;20242;-74
2022/11/16 07:07:46;;;;;;;11.40;9.53;;;;;;;-141.59;100.00;61776.25;5091902;28;20212;-74
2022/11/16 07:10:14;;;;;;;12.23;9.27;;;;;;;-141.59;100.00;61776.25;5078439;28;20311;-74
2022/11/16 07:12:43;;;;;;;12.63;9.03;;;;;;;-141.59;100.00;61776.25;5085037;28;20196;-75
2022/11/16 07:15:11;;;;;;;11.70;8.70;;;;;;;-141.59;100.00;61776.25;5080885;28;20193;-74
2022/11/16 07:17:41;;;;;;;12.47;8.27;;;;;;;-141.59;100.00;61776.25;5078840;28;20213;-75
2022/11/16 07:20:10;;;;;;;11.63;8.37;;;;;;;-141.59;100.00;61776.25;5080458;28;20207;-75
2022/11/16 07:22:38;;;;;;;12.97;9.13;;;;;;;-141.59;100.00;61776.25;5081097;28;20217;-75
2022/11/16 07:25:09;;;;;;;13.17;8.77;;;;;;;-141.59;100.00;61776.25;5084768;28;20251;-75
2022/11/16 07:27:36;;;;;;;11.00;8.10;;;;;;;-141.59;100.00;61776.25;5093643;28;20311;-75
2022/11/16 07:30:05;;;;;;;11.10;8.27;;;;;;;-141.59;100.00;61776.25;5074651;28;20226;-74
2022/11/16 07:32:47;;;;;;;13.03;9.40;;;;;;;-141.59;100.00;61776.25;5092332;28;20205;-74
2022/11/16 07:35:28;;;;;;;14.40;9.13;;;;;;;-141.59;100.00;61776.25;5078173;28;20228;-74
2022/11/16 07:37:55;;;;;;;10.93;8.77;;;;;;;-141.59;100.00;61776.25;5079707;28;20269;-77
2022/11/16 07:40:24;;;;;;;9.60;7.43;;;;;;;-141.59;100.00;61776.25;5078309;28;20243;-75
2022/11/16 07:42:51;;;;;;;18.03;14.93;;;;;;;-141.59;100.00;61776.25;5080318;28;20217;-77
2022/11/16 07:45:29;;;;;;;20.10;15.83;;;;;;;-141.59;100.00;61776.25;5075047;28;20197;-76
2022/11/16 07:48:03;;;;;;;15.30;11.73;;;;;;;-141.59;100.00;61776.25;5077363;28;20208;-77
2022/11/16 07:50:49;;;;;;;15.53;11.10;;;;;;;-141.59;100.00;61776.25;5085806;28;20288;-80
2022/11/16 07:53:17;;;;;;;13.67;10.67;;;;;;;-141.59;100.00;61776.25;5070725;28;20236;-82
2022/11/16 07:55:52;;;;;;;13.27;11.40;;;;;;;-141.59;100.00;61776.25;5075624;28;20260;-82
2022/11/16 07:58:19;;;;;;;11.30;8.37;;;;;;;-141.59;100.00;61776.25;5080870;28;20200;-82
2022/11/16 08:00:47;;;;;;;12.77;10.30;;;;;;;-141.59;100.00;61776.25;5082912;28;20208;-83
2022/11/16 08:03:16;;;;;;;14.07;8.67;;;;;;;-141.59;100.00;61776.25;5076416;28;20251;-82
2022/11/16 08:05:44;;;;;;;11.33;7.77;;;;;;;-141.59;100.00;61776.25;5069530;28;20205;-83
2022/11/16 08:08:12;;;;;;;10.33;8.23;;;;;;;-141.59;100.00;61776.25;5084725;28;20284;-82
2022/11/16 08:10:40;;;;;;;12.50;8.70;;;;;;;-141.59;100.00;61776.25;5069929;28;20279;-82
2022/11/16 08:13:09;;;;;;;12.10;7.80;;;;;;;-141.59;100.00;61776.25;5081905;28;20213;-82
2022/11/16 08:15:36;;;;;;;11.23;8.87;;;;;;;-141.59;100.00;61776.25;5078117;28;20277;-80
2022/11/16 08:18:07;;;;;;;13.00;9.33;;;;;;;-141.59;100.00;61776.25;5073160;28;20214;-83
2022/11/16 08:20:35;;;;;;;13.60;9.17;;;;;;;-141.59;100.00;61776.25;5080965;28;20212;-82
2022/11/16 08:23:02;;;;;;;11.47;8.63;;;;;;;-141.59;100.00;61776.25;5083209;28;20213;-83
2022/11/16 08:25:33;;;;;;;12.00;8.13;;;;;;;-141.59;100.00;61776.25;5075414;28;20205;-77
2022/11/16 08:28:00;;;;;;;10.87;8.73;;;;;;;-141.59;100.00;61776.25;5082164;28;20205;-77
2022/11/16 08:30:29;;;;;;;12.87;8.90;;;;;;;-141.59;100.00;61776.25;5074572;28;20304;-77
2022/11/16 08:32:56;;;;;;;11.83;8.43;;;;;;;-141.59;100.00;61776.25;5083623;28;20201;-77
2022/11/16 08:35:24;;;;;;;12.97;9.47;;;;;;;-141.59;100.00;61776.25;5072109;28;20255;-76
2022/11/16 08:37:51;;;;;;;11.67;8.30;;;;;;;-141.59;100.00;61776.25;5076462;28;20212;-76
2022/11/16 08:40:18;;;;;;;12.00;8.57;;;;;;;-141.59;100.00;61776.25;5075654;28;20288;-78
2022/11/16 08:42:50;;;;;;;10.10;8.10;;;;;;;-141.59;100.00;61776.25;5073631;28;20251;-75
2022/11/16 08:45:17;;;;;;;11.47;9.17;;;;;;;-141.59;100.00;61776.25;5073262;28;20203;-77
2022/11/16 08:47:46;;;;;;;14.97;11.53;;;;;;;-141.59;100.00;61776.25;5076762;28;20201;-76
2022/11/16 08:50:13;;;;;;;17.40;12.13;;;;;;;-141.59;100.00;61776.25;5069796;28;20204;-75
2022/11/16 08:52:40;;;;;;;13.90;10.50;;;;;;;-141.59;100.00;61776.25;5084198;28;20208;-75
2022/11/16 08:55:09;;;;;;;16.73;10.77;;;;;;;-141.59;100.00;61776.25;5085343;28;20286;-75
2022/11/16 08:57:37;;;;;;;13.77;9.70;;;;;;;-141.59;100.00;61776.25;5074325;28;20227;-76
2022/11/16 09:00:11;;;;;;;14.60;10.27;;;;;;;-141.59;100.00;61776.25;5079329;28;20255;-76
2022/11/16 09:02:38;;;;;;;13.27;10.17;;;;;;;-141.59;100.00;61776.25;5081142;28;20320;-76
2022/11/16 09:05:10;;;;;;;14.87;10.20;;;;;;;-141.59;100.00;61776.25;5080442;28;20197;-76
2022/11/16 09:07:38;;;;;;;15.87;10.03;;;;;;;-141.59;100.00;61776.25;5074608;28;20202;-76
2022/11/16 09:10:06;;;;;;;12.23;9.43;;;;;;;-141.59;100.00;61776.25;5075067;28;20217;-75
2022/11/16 09:12:34;;;;;;;12.87;8.63;;;;;;;-141.59;100.00;61776.25;5075869;28;20244;-78
2022/11/16 09:15:01;;;;;;;14.67;9.60;;;;;;;-141.59;100.00;61776.25;5069796;28;20208;-78
2022/11/16 09:17:28;;;;;;;12.07;9.20;;;;;;;-141.59;100.00;61776.25;5082041;28;20309;-76
2022/11/16 09:19:55;;;;;;;13.30;8.87;;;;;;;-141.59;100.00;61776.25;5087993;28;20208;-76
2022/11/16 09:22:23;;;;;;;11.10;9.07;;;;;;;-141.59;100.00;61776.25;5091481;28;20219;-76
2022/11/16 09:24:50;;;;;;;11.17;9.40;;;;;;;-141.59;100.00;61776.25;5081015;28;20208;-76
2022/11/16 09:27:17;;;;;;;12.67;9.60;;;;;;;-141.59;100.00;61776.25;5074717;28;20521;-76
2022/11/16 09:29:44;;;;;;;12.40;9.17;;;;;;;-141.59;100.00;61776.25;5078011;28;20196;-75
2022/11/16 09:32:11;;;;;;;13.43;9.37;;;;;;;-141.59;100.00;61776.25;5085461;28;20208;-77
2022/11/16 09:34:38;;;;;;;9.73;8.13;;;;;;;-141.59;100.00;61776.25;5078549;28;20196;-75
2022/11/16 09:37:09;;;;;;;11.50;8.20;;;;;;;-141.59;100.00;61776.25;5076071;28;20447;-76
2022/11/16 09:39:37;;;;;;;11.53;8.57;;;;;;;-141.59;100.00;61776.25;5085065;28;20288;-76
2022/11/16 09:42:21;;;;;;;10.93;8.63;;;;;;;-141.59;100.00;61776.25;5075048;28;20201;-76
2022/11/16 09:45:03;;;;;;;14.53;9.67;;;;;;;-141.59;100.00;61776.25;5096993;28;20200;-76
2022/11/16 09:47:40;;;;;;;24.60;18.30;;;;;;;-141.59;100.00;61776.25;5080549;28;20201;-76
2022/11/16 09:50:18;;;;;;;11.73;9.57;;;;;;;-141.59;100.00;61776.25;5098566;28;20411;-76
2022/11/16 09:52:51;;;;;;;10.70;8.83;;;;;;;-141.59;100.00;61776.25;5088323;28;20253;-76
2022/11/16 09:55:24;;;;;;;11.63;8.57;;;;;;;-141.59;100.00;61776.25;5077319;28;20292;-76
2022/11/16 09:57:55;;;;;;;14.80;9.50;;;;;;;-141.59;100.00;61776.25;5074528;28;20205;-76
2022/11/16 10:00:23;;;;;;;12.03;8.77;;;;;;;-141.59;100.00;61776.25;5069529;28;20223;-75
2022/11/16 10:02:59;;;;;;;9.27;7.13;;;;;;;-141.59;100.00;61776.25;5091239;28;20217;-77
2022/11/16 10:05:32;;;;;;;10.57;7.47;;;;;;;-141.59;100.00;61776.25;5086653;28;20195;-76
2022/11/16 10:08:06;;;;;;;9.20;7.07;;;;;;;-141.59;100.00;61776.25;5077944;28;20199;-75
2022/11/16 10:10:39;;;;;;;10.77;8.10;;;;;;;-141.59;100.00;61776.25;5074131;28;20260;-76
2022/11/16 10:13:21;;;;;;;9.97;7.70;;;;;;;-141.59;100.00;61776.25;5079462;28;20223;-76
2022/11/16 10:16:01;;;;;;;8.93;6.97;;;;;;;-141.59;100.00;61776.25;5083336;28;20207;-76
2022/11/16 10:18:41;;;;;;;10.97;7.50;;;;;;;-141.59;100.00;61776.25;5094509;28;20196;-75
2022/11/16 10:21:37;;;;;;;10.20;7.60;;;;;;;-141.59;100.00;61776.25;5077870;28;20265;-75
2022/11/16 10:24:30;;;;;;;10.30;7.80;;;;;;;-141.59;100.00;61776.25;5076241;28;20231;-76
2022/11/16 10:27:22;;;;;;;12.53;7.97;;;;;;;-141.59;100.00;61776.25;5088119;28;20273;-75
2022/11/16 10:30:02;;;;;;;10.13;8.00;;;;;;;-141.59;100.00;61776.25;5083672;28;20243;-75
2022/11/16 10:32:31;;;;;;;11.20;8.07;;;;;;;-141.59;100.00;61776.25;5088341;28;20212;-77
2022/11/16 10:35:05;;;;;;;9.40;7.50;;;;;;;-141.59;100.00;61776.25;5077817;28;20189;-77
2022/11/16 10:37:35;;;;;;;9.67;7.70;;;;;;;-141.59;100.00;61776.25;5077374;28;20197;-78
2022/11/16 10:40:16;;;;;;;11.07;7.83;;;;;;;-141.59;100.00;61776.25;5093501;28;20197;-78
2022/11/16 10:42:50;;;;;;;8.77;7.23;;;;;;;-141.59;100.00;61776.25;5092016;28;20239;-78
2022/11/16 10:45:22;;;;;;;10.20;7.33;;;;;;;-141.59;100.00;61776.25;5071652;28;20208;-77
2022/11/16 10:47:56;;;;;;;11.00;8.00;;;;;;;-141.59;100.00;61776.25;5089824;28;20213;-77
2022/11/16 10:50:32;;;;;;;7.97;6.53;;;;;;;-141.59;100.00;61776.25;5073870;28;20193;-77
2022/11/16 10:53:00;;;;;;;10.40;6.90;;;;;;;-141.59;100.00;61776.25;5093184;28;20279;-77
2022/11/16 10:55:28;;;;;;;8.90;6.53;;;;;;;-141.59;100.00;61776.25;5093551;28;20208;-77
2022/11/16 10:57:58;;;;;;;8.13;6.40;;;;;;;-141.59;100.00;61776.25;5077027;28;20216;-77
2022/11/16 11:00:46;;;;;;;5.77;4.83;;;;;;;-141.59;100.00;61776.25;5078742;28;20234;-77
2022/11/16 11:03:13;;;;;;;5.90;4.30;;;;;;;-141.59;100.00;61776.25;5080660;28;20340;-77
2022/11/16 11:05:49;;;;;;;5.10;4.30;;;;;;;-141.59;100.00;61776.25;5084919;28;20193;-77
2022/11/16 11:08:26;;;;;;;5.43;4.07;;;;;;;-141.59;100.00;61776.25;5082579;28;20227;-77
2022/11/16 11:11:00;;;;;;;8.07;4.10;;;;;;;-141.59;100.00;61776.25;5088841;28;20235;-77
2022/11/16 11:13:29;;;;;;;7.70;4.90;;;;;;;-141.59;100.00;61776.25;5079297;28;20200;-77
2022/11/16 11:16:17;;;;;;;10.77;6.30;;;;;;;-141.59;100.00;61776.25;5093949;28;20193;-77
2022/11/16 11:18:44;;;;;;;8.63;5.27;;;;;;;-141.59;100.00;61776.25;5104449;28;20208;-77
2022/11/16 11:21:18;;;;;;;6.83;4.63;;;;;;;-141.59;100.00;61776.25;5075863;28;20204;-77
2022/11/16 11:23:49;;;;;;;5.67;4.17;;;;;;;-141.59;100.00;61776.25;5103234;28;20248;-77
2022/11/16 11:26:32;;;;;;;6.13;3.80;;;;;;;-141.59;100.00;61776.25;5098730;28;20309;-77
2022/11/16 11:29:05;;;;;;;3.60;2.87;;;;;;;-141.59;100.00;61776.25;5098340;28;20203;-79
2022/11/16 11:31:38;;;;;;;3.53;3.13;;;;;;;-141.59;100.00;61776.25;5099029;28;20238;-82
2022/11/16 11:34:18;;;;;;;3.60;3.17;;;;;;;-141.59;100.00;61776.25;5087460;28;20201;-81
2022/11/16 11:36:50;;;;;;;3.67;3.00;;;;;;;-141.59;100.00;61776.25;5086875;28;20592;-82
2022/11/16 11:39:36;;;;;;;3.60;3.00;;;;;;;-141.59;100.00;61776.25;5086691;28;20242;-80
2022/11/16 11:42:06;;;;;;;4.03;2.93;;;;;;;-141.59;100.00;61776.25;5082968;28;20307;-82
2022/11/16 11:44:48;;;;;;;3.77;3.07;;;;;;;-141.59;100.00;61776.25;5081248;28;20281;-82
2022/11/16 11:47:43;;;;;;;4.30;3.30;;;;;;;-141.59;100.00;61776.25;5098175;28;20204;-81
2022/11/16 11:50:16;;;;;;;2.70;2.47;;;;;;;-141.59;100.00;61776.25;5073554;28;20250;-81
2022/11/16 11:52:52;;;;;;;3.33;2.10;;;;;;;-141.59;100.00;61776.25;5092797;28;20196;-75
2022/11/16 11:55:20;;;;;;;2.77;1.80;;;;;;;-141.59;100.00;61776.25;5081008;28;20205;-79
2022/11/16 11:57:52;;;;;;;2.10;1.90;;;;;;;-141.59;100.00;61776.25;5081370;28;20197;-79
2022/11/16 12:00:21;;;;;;;2.43;2.00;;;;;;;-141.59;100.00;61776.25;5083649;28;20277;-79
2022/11/16 12:03:10;;;;;;;2.10;1.70;;;;;;;-141.59;100.00;61776.25;5078370;28;20196;-78